Time;durP1;ratioP1;P1;durP2;ratioP2;P2;SDS_P1;SDS_P2;PMS_P1;PMS_P2;Temp;Humidity;BMP_temperature;BMP_pressure;BME280_temperature;BME280_humidity;BME280_pressure;Samples;Min_cycle;Max_cycle;Signal;HPM_P1;HPM_P2
2022/05/21 00:01:33;;;;;;;14.07;11.63;;;;;;;;;;5011428;28;20204;-70
2022/05/21 00:03:58;;;;;;;18.00;11.30;;;;;;;;;;5013627;28;20178;-71
2022/05/21 00:06:23;;;;;;;16.33;11.07;;;;;;;;;;5017356;28;20658;-71
2022/05/21 00:08:49;;;;;;;17.07;10.37;;;;;;;;;;5008629;28;20186;-70
2022/05/21 00:11:14;;;;;;;15.30;10.63;;;;;;;;;;5010126;28;20203;-70
2022/05/21 00:13:39;;;;;;;12.73;10.00;;;;;;;;;;5011447;28;20314;-70
2022/05/21 00:16:05;;;;;;;13.10;9.67;;;;;;;;;;5011373;28;20175;-72
2022/05/21 00:18:30;;;;;;;16.00;9.10;;;;;;;;;;5027614;28;20256;-70
2022/05/21 00:20:55;;;;;;;15.10;10.13;;;;;;;;;;5014184;28;20215;-71
2022/05/21 00:23:24;;;;;;;16.47;10.13;;;;;;;;;;5014811;28;20656;-70
2022/05/21 00:25:50;;;;;;;15.20;10.33;;;;;;;;;;5013772;28;20678;-70
2022/05/21 00:28:15;;;;;;;17.50;10.70;;;;;;;;;;5013274;28;20292;-73
2022/05/21 00:30:41;;;;;;;14.80;10.10;;;;;;;;;;5003699;28;20634;-70
2022/05/21 00:33:06;;;;;;;15.27;9.67;;;;;;;;;;5010820;28;20206;-69
2022/05/21 00:35:32;;;;;;;13.73;9.13;;;;;;;;;;5008555;28;20270;-71
2022/05/21 00:37:57;;;;;;;13.27;9.07;;;;;;;;;;5007140;28;20179;-72
2022/05/21 00:40:23;;;;;;;16.43;10.03;;;;;;;;;;5009548;28;20710;-70
2022/05/21 00:42:48;;;;;;;13.43;9.70;;;;;;;;;;5009406;28;20190;-70
2022/05/21 00:45:14;;;;;;;15.90;10.30;;;;;;;;;;5012624;28;20182;-70
2022/05/21 00:47:39;;;;;;;16.10;9.70;;;;;;;;;;5010493;28;20182;-70
2022/05/21 00:50:05;;;;;;;18.93;10.67;;;;;;;;;;5004609;28;20274;-70
2022/05/21 00:52:32;;;;;;;14.80;9.83;;;;;;;;;;5003112;28;20309;-73
2022/05/21 00:54:59;;;;;;;17.23;11.10;;;;;;;;;;5015322;28;20657;-70
2022/05/21 00:57:24;;;;;;;14.50;10.48;;;;;;;;;;5010672;28;20637;-70
2022/05/21 00:59:52;;;;;;;16.90;10.90;;;;;;;;;;5013293;28;20568;-71
2022/05/21 01:02:19;;;;;;;18.23;10.87;;;;;;;;;;5011198;28;20448;-71
2022/05/21 01:04:44;;;;;;;18.90;11.37;;;;;;;;;;5014818;28;20268;-72
2022/05/21 01:07:10;;;;;;;14.93;10.40;;;;;;;;;;5014818;28;20214;-73
2022/05/21 01:09:38;;;;;;;15.87;10.70;;;;;;;;;;5010075;28;20551;-70
2022/05/21 01:12:03;;;;;;;18.02;11.10;;;;;;;;;;5009076;28;21619;-72
2022/05/21 01:14:28;;;;;;;13.15;9.98;;;;;;;;;;5011141;28;20229;-70
2022/05/21 01:16:54;;;;;;;14.37;10.93;;;;;;;;;;5012800;28;20187;-72
2022/05/21 01:19:19;;;;;;;15.43;10.70;;;;;;;;;;5008387;28;20188;-72
2022/05/21 01:21:44;;;;;;;15.65;9.88;;;;;;;;;;5012260;28;20649;-72
2022/05/21 01:24:10;;;;;;;19.52;10.40;;;;;;;;;;5018260;28;20737;-70
2022/05/21 01:26:36;;;;;;;18.50;10.75;;;;;;;;;;5013553;28;20688;-72
2022/05/21 01:29:03;;;;;;;14.13;10.20;;;;;;;;;;5014783;28;20206;-73
2022/05/21 01:31:28;;;;;;;17.42;9.52;;;;;;;;;;5013907;28;20695;-71
2022/05/21 01:33:54;;;;;;;18.23;10.10;;;;;;;;;;5017673;28;20195;-70
2022/05/21 01:36:19;;;;;;;15.88;10.35;;;;;;;;;;5029119;28;20190;-71
2022/05/21 01:38:45;;;;;;;18.58;10.88;;;;;;;;;;5014191;28;20175;-71
2022/05/21 01:41:11;;;;;;;16.85;9.50;;;;;;;;;;5013527;28;20931;-71
2022/05/21 01:44:37;;;;;;;16.73;9.67;;;;;;;;;;5011533;28;20179;-72
2022/05/21 01:46:39;;;;;;;15.90;9.02;;;;;;;;;;5015057;28;20193;-72
2022/05/21 01:49:05;;;;;;;29.45;11.00;;;;;;;;;;5015978;28;20202;-72
2022/05/21 01:51:30;;;;;;;20.53;10.33;;;;;;;;;;5012433;28;20219;-72
2022/05/21 01:53:55;;;;;;;17.00;10.77;;;;;;;;;;5015916;28;20290;-71
2022/05/21 01:56:21;;;;;;;22.07;10.20;;;;;;;;;;5009688;28;20710;-71
2022/05/21 01:58:46;;;;;;;22.20;10.18;;;;;;;;;;5013175;28;20179;-72
2022/05/21 02:01:11;;;;;;;16.02;9.57;;;;;;;;;;5010357;28;21210;-72
2022/05/21 02:03:37;;;;;;;34.72;12.30;;;;;;;;;;5012626;28;20186;-71
2022/05/21 02:06:02;;;;;;;11.68;8.52;;;;;;;;;;5018779;28;20190;-71
2022/05/21 02:08:28;;;;;;;22.23;9.82;;;;;;;;;;5012239;28;20274;-71
2022/05/21 02:10:53;;;;;;;16.38;9.27;;;;;;;;;;5010179;28;20206;-71
2022/05/21 02:13:21;;;;;;;18.92;9.65;;;;;;;;;;5013165;28;20695;-71
2022/05/21 02:15:46;;;;;;;14.98;9.02;;;;;;;;;;5013428;28;20187;-71
2022/05/21 02:18:12;;;;;;;19.33;9.07;;;;;;;;;;5011803;28;20653;-72
2022/05/21 02:20:38;;;;;;;15.20;7.97;;;;;;;;;;5011736;28;20281;-71
2022/05/21 02:23:03;;;;;;;16.10;8.07;;;;;;;;;;5013286;28;20635;-72
2022/05/21 02:25:28;;;;;;;21.57;8.70;;;;;;;;;;5011862;28;20186;-72
2022/05/21 02:27:53;;;;;;;23.30;9.83;;;;;;;;;;5012525;28;20186;-72
2022/05/21 02:30:18;;;;;;;18.20;9.03;;;;;;;;;;5012661;28;20672;-73
2022/05/21 02:32:43;;;;;;;19.93;8.77;;;;;;;;;;5010858;28;20217;-71
2022/05/21 02:35:09;;;;;;;15.23;8.07;;;;;;;;;;5012670;28;20259;-71
2022/05/21 02:40:23;;;;;;;21.47;9.23;;;;;;;;;;4989491;28;20219;-71
2022/05/21 02:42:48;;;;;;;18.52;8.05;;;;;;;;;;5032313;28;20210;-71
2022/05/21 02:45:16;;;;;;;20.33;7.37;;;;;;;;;;5015259;28;20178;-71
2022/05/21 02:47:42;;;;;;;17.40;6.60;;;;;;;;;;5012928;28;20189;-71
2022/05/21 02:50:08;;;;;;;15.20;5.57;;;;;;;;;;5012694;28;20179;-72
2022/05/21 02:52:33;;;;;;;19.23;5.73;;;;;;;;;;5000401;28;20199;-72
2022/05/21 02:54:58;;;;;;;17.58;5.70;;;;;;;;;;5007111;28;20226;-71
2022/05/21 02:57:23;;;;;;;12.93;4.13;;;;;;;;;;5012381;28;20273;-71
2022/05/21 02:59:50;;;;;;;16.85;4.60;;;;;;;;;;5013249;28;20178;-71
2022/05/21 03:02:15;;;;;;;17.73;5.47;;;;;;;;;;5013594;28;20200;-71
2022/05/21 03:04:41;;;;;;;15.13;4.50;;;;;;;;;;5010709;28;20686;-71
2022/05/21 03:07:06;;;;;;;18.50;4.33;;;;;;;;;;5012292;28;20183;-72
2022/05/21 03:12:15;;;;;;;15.48;4.32;;;;;;;;;;5015908;28;20261;-71
2022/05/21 03:14:40;;;;;;;17.40;4.43;;;;;;;;;;5012020;28;20199;-72
2022/05/21 03:17:05;;;;;;;12.53;4.17;;;;;;;;;;5012213;28;20179;-72
2022/05/21 03:19:31;;;;;;;16.47;5.17;;;;;;;;;;5010402;28;20187;-71
2022/05/21 03:21:57;;;;;;;15.23;4.60;;;;;;;;;;5014717;28;20401;-71
2022/05/21 03:24:22;;;;;;;11.83;3.73;;;;;;;;;;5009871;28;20282;-70
2022/05/21 03:26:47;;;;;;;17.50;5.30;;;;;;;;;;5012083;28;20280;-71
2022/05/21 03:29:13;;;;;;;15.30;4.53;;;;;;;;;;5011835;28;20655;-71
2022/05/21 03:31:38;;;;;;;13.03;4.60;;;;;;;;;;5013651;28;20341;-71
2022/05/21 03:34:04;;;;;;;16.50;4.57;;;;;;;;;;5008239;28;20199;-72
2022/05/21 03:36:29;;;;;;;14.00;3.57;;;;;;;;;;5007437;28;20288;-71
2022/05/21 03:38:55;;;;;;;21.87;4.67;;;;;;;;;;5009446;28;20178;-71
2022/05/21 03:41:20;;;;;;;14.30;4.30;;;;;;;;;;5017699;28;20206;-70
2022/05/21 03:43:46;;;;;;;16.13;3.85;;;;;;;;;;5010942;28;20179;-71
2022/05/21 03:46:11;;;;;;;23.73;4.87;;;;;;;;;;5011986;28;20190;-71
2022/05/21 03:48:36;;;;;;;17.87;4.40;;;;;;;;;;5016725;28;20279;-71
2022/05/21 03:51:02;;;;;;;10.70;3.60;;;;;;;;;;5016463;28;20210;-71
2022/05/21 03:53:28;;;;;;;17.23;4.83;;;;;;;;;;5010189;28;20214;-72
2022/05/21 03:55:54;;;;;;;13.40;4.07;;;;;;;;;;5011786;28;20179;-72
2022/05/21 03:58:19;;;;;;;9.33;3.23;;;;;;;;;;5013233;28;20190;-72
2022/05/21 04:00:44;;;;;;;14.73;3.90;;;;;;;;;;5014788;28;20190;-71
2022/05/21 04:03:09;;;;;;;19.27;4.23;;;;;;;;;;5016502;28;20187;-71
2022/05/21 04:05:36;;;;;;;17.83;4.30;;;;;;;;;;5013346;28;20274;-71
2022/05/21 04:08:02;;;;;;;17.10;4.37;;;;;;;;;;5010051;28;20182;-71
2022/05/21 04:10:27;;;;;;;14.50;4.17;;;;;;;;;;5010237;28;20230;-72
2022/05/21 04:12:52;;;;;;;14.53;3.93;;;;;;;;;;5016470;28;20241;-72
2022/05/21 04:15:18;;;;;;;12.77;3.47;;;;;;;;;;5006481;28;20198;-71
2022/05/21 04:17:43;;;;;;;15.60;4.17;;;;;;;;;;5014707;28;20185;-71
2022/05/21 04:20:09;;;;;;;18.63;3.97;;;;;;;;;;5012666;28;20787;-72
2022/05/21 04:22:35;;;;;;;13.53;4.33;;;;;;;;;;5012266;28;20187;-72
2022/05/21 04:25:00;;;;;;;10.43;4.20;;;;;;;;;;5012160;28;20181;-73
2022/05/21 04:27:25;;;;;;;9.67;2.97;;;;;;;;;;5017611;28;20577;-71
2022/05/21 04:29:50;;;;;;;11.00;3.10;;;;;;;;;;5023096;28;20270;-73
2022/05/21 04:32:16;;;;;;;12.87;3.97;;;;;;;;;;5023845;28;20587;-72
2022/05/21 04:34:41;;;;;;;13.03;3.67;;;;;;;;;;5011230;28;20210;-71
2022/05/21 04:37:06;;;;;;;10.90;3.10;;;;;;;;;;5010564;28;20191;-71
2022/05/21 04:39:31;;;;;;;8.43;2.63;;;;;;;;;;5008500;28;20190;-71
2022/05/21 04:41:58;;;;;;;12.35;3.15;;;;;;;;;;5013846;28;20268;-72
2022/05/21 04:44:31;;;;;;;14.65;3.10;;;;;;;;;;5011893;28;20269;-72
2022/05/21 04:46:56;;;;;;;16.75;3.47;;;;;;;;;;5012824;28;20210;-72
2022/05/21 04:49:21;;;;;;;13.60;3.50;;;;;;;;;;5008603;28;20656;-72
2022/05/21 04:51:46;;;;;;;11.48;3.83;;;;;;;;;;5009705;28;20218;-71
2022/05/21 04:54:11;;;;;;;13.25;3.28;;;;;;;;;;5000342;28;20207;-70
2022/05/21 04:56:36;;;;;;;13.63;4.00;;;;;;;;;;5016089;28;20233;-72
2022/05/21 04:59:03;;;;;;;12.60;2.63;;;;;;;;;;5014490;28;20211;-72
2022/05/21 05:01:30;;;;;;;15.10;3.85;;;;;;;;;;5002132;28;20294;-72
2022/05/21 05:03:55;;;;;;;11.10;3.03;;;;;;;;;;5013813;28;20217;-72
2022/05/21 05:06:20;;;;;;;12.32;3.33;;;;;;;;;;5017270;28;20622;-72
2022/05/21 05:08:45;;;;;;;14.70;2.72;;;;;;;;;;5016873;28;20686;-72
2022/05/21 05:11:11;;;;;;;12.90;3.08;;;;;;;;;;5013778;28;20195;-72
2022/05/21 05:13:36;;;;;;;11.70;3.40;;;;;;;;;;5015644;28;20702;-73
2022/05/21 05:16:01;;;;;;;13.17;3.00;;;;;;;;;;5015255;28;20175;-72
2022/05/21 05:18:31;;;;;;;11.18;3.00;;;;;;;;;;5011888;28;20432;-71
2022/05/21 05:20:56;;;;;;;12.15;3.25;;;;;;;;;;5026430;28;20203;-72
2022/05/21 05:23:21;;;;;;;16.60;4.80;;;;;;;;;;5013448;28;20190;-71
2022/05/21 05:25:46;;;;;;;9.07;3.20;;;;;;;;;;5013545;28;20190;-71
2022/05/21 05:28:18;;;;;;;18.70;4.82;;;;;;;;;;5012163;28;20837;-73
2022/05/21 05:30:44;;;;;;;11.88;3.50;;;;;;;;;;5012418;28;20357;-71
2022/05/21 05:33:09;;;;;;;11.32;2.88;;;;;;;;;;5018910;28;20289;-71
2022/05/21 05:35:34;;;;;;;11.60;3.20;;;;;;;;;;5014109;28;20258;-72
2022/05/21 05:38:03;;;;;;;15.02;3.13;;;;;;;;;;5015785;28;20182;-71
2022/05/21 05:40:28;;;;;;;13.57;3.20;;;;;;;;;;5018472;28;20254;-71
2022/05/21 05:42:53;;;;;;;18.43;4.87;;;;;;;;;;5014715;28;20574;-71
2022/05/21 05:45:19;;;;;;;10.32;4.30;;;;;;;;;;5013889;28;20423;-71
2022/05/21 05:47:44;;;;;;;9.25;3.10;;;;;;;;;;5015718;28;20620;-72
2022/05/21 05:50:10;;;;;;;12.63;3.53;;;;;;;;;;5015418;28;20193;-72
2022/05/21 05:52:35;;;;;;;9.35;2.97;;;;;;;;;;5017435;28;20190;-71
2022/05/21 05:55:00;;;;;;;12.88;3.33;;;;;;;;;;5020125;28;20268;-72
2022/05/21 05:57:26;;;;;;;16.67;3.67;;;;;;;;;;5016151;28;20178;-72
2022/05/21 05:59:51;;;;;;;9.23;2.85;;;;;;;;;;5014331;28;20175;-71
2022/05/21 06:05:06;;;;;;;15.65;3.47;;;;;;;;;;5014264;28;20241;-70
2022/05/21 06:07:32;;;;;;;15.52;2.80;;;;;;;;;;5010974;28;20193;-70
2022/05/21 06:10:04;;;;;;;12.02;3.05;;;;;;;;;;5012249;28;20277;-71
2022/05/21 06:12:30;;;;;;;14.18;3.05;;;;;;;;;;5016279;28;20203;-72
2022/05/21 06:14:55;;;;;;;12.93;2.70;;;;;;;;;;5012613;28;20186;-72
2022/05/21 06:17:20;;;;;;;10.57;2.78;;;;;;;;;;5011949;28;20183;-71
2022/05/21 06:19:45;;;;;;;13.13;3.60;;;;;;;;;;5010784;28;20187;-71
2022/05/21 06:22:10;;;;;;;13.90;3.13;;;;;;;;;;5016736;28;20249;-71
2022/05/21 06:24:36;;;;;;;18.45;3.75;;;;;;;;;;5015207;28;20257;-72
2022/05/21 06:27:01;;;;;;;14.63;2.83;;;;;;;;;;5017144;28;20179;-71
2022/05/21 06:29:26;;;;;;;9.38;2.88;;;;;;;;;;5012242;28;20191;-71
2022/05/21 06:31:52;;;;;;;9.13;2.47;;;;;;;;;;5013029;28;20245;-71
2022/05/21 06:34:17;;;;;;;10.50;2.90;;;;;;;;;;5010525;28;20909;-71
2022/05/21 06:36:42;;;;;;;11.50;2.67;;;;;;;;;;5009721;28;20205;-71
2022/05/21 06:39:07;;;;;;;11.10;3.30;;;;;;;;;;5013551;28;20428;-71
2022/05/21 06:41:32;;;;;;;12.18;2.70;;;;;;;;;;5027229;28;20449;-71
2022/05/21 06:43:58;;;;;;;8.43;2.75;;;;;;;;;;5010623;28;20183;-71
2022/05/21 06:46:23;;;;;;;11.65;2.65;;;;;;;;;;5012057;28;20612;-71
2022/05/21 06:48:49;;;;;;;11.27;3.83;;;;;;;;;;5005725;28;20304;-71
2022/05/21 06:51:14;;;;;;;10.43;2.95;;;;;;;;;;4993217;28;20615;-72
2022/05/21 06:53:40;;;;;;;11.60;3.10;;;;;;;;;;4997681;28;20242;-70
2022/05/21 06:56:09;;;;;;;9.65;2.50;;;;;;;;;;4998084;28;20187;-70
2022/05/21 06:58:34;;;;;;;11.70;3.22;;;;;;;;;;4997539;28;20545;-70
2022/05/21 07:00:59;;;;;;;10.63;2.55;;;;;;;;;;5000155;28;20206;-70
2022/05/21 07:03:25;;;;;;;10.47;2.87;;;;;;;;;;4997527;28;20198;-72
2022/05/21 07:08:34;;;;;;;10.88;2.65;;;;;;;;;;4999615;28;20186;-72
2022/05/21 07:10:59;;;;;;;13.30;3.17;;;;;;;;;;4997678;28;20210;-70
2022/05/21 07:13:25;;;;;;;16.08;4.68;;;;;;;;;;4998927;28;20289;-70
2022/05/21 07:15:52;;;;;;;9.27;3.28;;;;;;;;;;5001530;28;20191;-70
2022/05/21 07:18:18;;;;;;;14.63;3.38;;;;;;;;;;4996720;28;20187;-70
2022/05/21 07:20:44;;;;;;;13.05;3.15;;;;;;;;;;5000981;28;20195;-71
2022/05/21 07:23:09;;;;;;;9.95;2.55;;;;;;;;;;4999388;28;20178;-71
2022/05/21 07:25:35;;;;;;;11.55;3.17;;;;;;;;;;4997846;28;20202;-71
2022/05/21 07:28:00;;;;;;;8.95;2.60;;;;;;;;;;4998161;28;20278;-70
2022/05/21 07:30:26;;;;;;;13.43;3.75;;;;;;;;;;4999313;28;20182;-71
2022/05/21 07:32:55;;;;;;;8.77;2.33;;;;;;;;;;4998991;28;20202;-71
2022/05/21 07:35:20;;;;;;;7.28;2.50;;;;;;;;;;4999748;28;20213;-71
2022/05/21 07:37:46;;;;;;;7.95;2.10;;;;;;;;;;4997949;28;20624;-70
2022/05/21 07:40:12;;;;;;;9.80;2.25;;;;;;;;;;5001413;28;20183;-71
2022/05/21 07:42:37;;;;;;;11.68;2.45;;;;;;;;;;5006426;28;20189;-71
2022/05/21 07:45:03;;;;;;;7.03;2.20;;;;;;;;;;4998813;28;20183;-71
2022/05/21 07:47:28;;;;;;;10.23;2.78;;;;;;;;;;4997908;28;21776;-70
2022/05/21 07:49:56;;;;;;;9.73;3.20;;;;;;;;;;4997559;28;20186;-70
2022/05/21 07:52:21;;;;;;;5.25;2.17;;;;;;;;;;5002634;28;22324;-70
2022/05/21 07:54:47;;;;;;;9.07;2.65;;;;;;;;;;5000120;28;20221;-70
2022/05/21 07:57:12;;;;;;;9.90;2.30;;;;;;;;;;4997618;28;20936;-70
2022/05/21 07:59:38;;;;;;;8.93;2.95;;;;;;;;;;4999054;28;20888;-70
2022/05/21 08:02:04;;;;;;;7.25;2.33;;;;;;;;;;4997441;28;20629;-70
2022/05/21 08:04:29;;;;;;;9.60;2.85;;;;;;;;;;4997399;28;20265;-70
2022/05/21 08:06:54;;;;;;;11.73;3.00;;;;;;;;;;4997902;28;20264;-70
2022/05/21 08:09:21;;;;;;;11.87;3.00;;;;;;;;;;4999865;28;20431;-70
2022/05/21 08:11:47;;;;;;;12.15;2.80;;;;;;;;;;4999476;28;20554;-70
2022/05/21 08:14:12;;;;;;;9.00;2.90;;;;;;;;;;4999450;28;20205;-70
2022/05/21 08:16:37;;;;;;;10.67;2.50;;;;;;;;;;4998370;28;20255;-70
2022/05/21 08:19:02;;;;;;;10.77;2.80;;;;;;;;;;4997627;28;20442;-71
2022/05/21 08:21:28;;;;;;;12.63;2.85;;;;;;;;;;4997691;28;20450;-70
2022/05/21 08:29:21;;;;;;;12.95;3.10;;;;;;;;;;4996112;28;20218;-70
2022/05/21 08:31:46;;;;;;;10.98;2.75;;;;;;;;;;4997133;28;20685;-70
2022/05/21 08:34:12;;;;;;;11.80;2.55;;;;;;;;;;5000218;28;20202;-70
2022/05/21 08:36:37;;;;;;;7.65;2.08;;;;;;;;;;4998249;28;20187;-70
2022/05/21 08:39:02;;;;;;;10.18;3.15;;;;;;;;;;4998491;28;20252;-70
2022/05/21 08:41:30;;;;;;;8.50;2.25;;;;;;;;;;5006367;28;20201;-70
2022/05/21 08:43:55;;;;;;;12.50;3.78;;;;;;;;;;4994438;28;20265;-70
2022/05/21 08:46:40;;;;;;;8.07;3.20;;;;;;;;;;4996351;28;20619;-71
2022/05/21 08:49:08;;;;;;;9.90;4.25;;;;;;;;;;4988273;28;20538;-70
2022/05/21 08:51:42;;;;;;;10.93;2.67;;;;;;;;;;4995313;28;20584;-70
2022/05/21 08:54:08;;;;;;;9.50;2.50;;;;;;;;;;4996980;28;20212;-70
2022/05/21 08:56:35;;;;;;;10.27;3.15;;;;;;;;;;4996904;28;20175;-71
2022/05/21 08:59:08;;;;;;;8.32;2.30;;;;;;;;;;4999049;28;20187;-70
2022/05/21 09:01:34;;;;;;;10.05;3.28;;;;;;;;;;4996897;28;20198;-70
2022/05/21 09:03:59;;;;;;;13.75;3.58;;;;;;;;;;4989398;28;20174;-70
2022/05/21 09:06:30;;;;;;;9.43;2.70;;;;;;;;;;4998410;28;20197;-70
2022/05/21 09:08:58;;;;;;;9.77;2.72;;;;;;;;;;4998519;28;20178;-70
2022/05/21 09:11:26;;;;;;;7.63;2.40;;;;;;;;;;4995433;28;20207;-70
2022/05/21 09:14:10;;;;;;;15.07;3.13;;;;;;;;;;4998901;28;20385;-70
2022/05/21 09:16:54;;;;;;;8.70;2.75;;;;;;;;;;4994736;28;20187;-70
2022/05/21 09:19:20;;;;;;;8.40;2.92;;;;;;;;;;4993398;28;20190;-70
2022/05/21 09:21:46;;;;;;;9.15;2.65;;;;;;;;;;4995615;28;20199;-70
2022/05/21 09:24:31;;;;;;;9.82;2.58;;;;;;;;;;4997217;28;20178;-70
2022/05/21 09:26:56;;;;;;;11.13;2.53;;;;;;;;;;4996390;28;20189;-70
2022/05/21 09:29:27;;;;;;;7.50;2.30;;;;;;;;;;4994684;28;20183;-70
2022/05/21 09:31:56;;;;;;;8.65;2.28;;;;;;;;;;4997235;28;20456;-70
2022/05/21 09:34:26;;;;;;;11.00;2.58;;;;;;;;;;4999345;28;20618;-70
2022/05/21 09:36:51;;;;;;;7.88;2.83;;;;;;;;;;4997947;28;20281;-71
2022/05/21 09:39:28;;;;;;;8.85;2.28;;;;;;;;;;4998001;28;20187;-71
2022/05/21 09:42:06;;;;;;;7.30;1.90;;;;;;;;;;4999776;28;20675;-71
2022/05/21 09:47:21;;;;;;;6.05;2.60;;;;;;;;;;5000572;28;20185;-70
2022/05/21 09:49:58;;;;;;;9.70;2.83;;;;;;;;;;5000124;28;20267;-70
2022/05/21 09:52:24;;;;;;;20.58;3.60;;;;;;;;;;4998402;28;20221;-71
2022/05/21 09:54:49;;;;;;;12.80;2.65;;;;;;;;;;5000234;28;20275;-71
2022/05/21 09:57:26;;;;;;;7.97;2.35;;;;;;;;;;4999447;28;20260;-71
2022/05/21 10:00:07;;;;;;;7.30;2.22;;;;;;;;;;5000904;28;20221;-71
2022/05/21 10:02:40;;;;;;;8.65;2.67;;;;;;;;;;4998929;28;20202;-71
2022/05/21 10:05:08;;;;;;;9.10;3.78;;;;;;;;;;4998587;28;20274;-71
2022/05/21 10:13:11;;;;;;;9.38;2.47;;;;;;;;;;4999150;28;20589;-71
2022/05/21 10:15:42;;;;;;;7.93;1.90;;;;;;;;;;5004133;28;20209;-71
2022/05/21 10:18:11;;;;;;;6.43;1.98;;;;;;;;;;4995807;28;20849;-71
2022/05/21 10:20:38;;;;;;;8.85;2.65;;;;;;;;;;5001405;28;20201;-71
2022/05/21 10:23:10;;;;;;;8.52;2.55;;;;;;;;;;5000411;28;20193;-71
2022/05/21 10:25:49;;;;;;;10.48;2.75;;;;;;;;;;5000518;28;20187;-71
2022/05/21 10:28:19;;;;;;;10.82;2.30;;;;;;;;;;4998187;28;20307;-71
2022/05/21 10:30:44;;;;;;;7.88;2.60;;;;;;;;;;4999638;28;20735;-73
2022/05/21 10:33:29;;;;;;;6.20;2.15;;;;;;;;;;4988984;28;20698;-72
2022/05/21 10:35:56;;;;;;;7.13;1.95;;;;;;;;;;4995761;28;20690;-71
2022/05/21 10:38:36;;;;;;;9.40;2.67;;;;;;;;;;5000798;28;20368;-71
2022/05/21 10:41:04;;;;;;;11.32;3.33;;;;;;;;;;4998575;28;20693;-71
2022/05/21 10:43:48;;;;;;;11.57;3.15;;;;;;;;;;5000392;28;20223;-71
2022/05/21 10:46:25;;;;;;;13.27;3.55;;;;;;;;;;4999132;28;20194;-71
2022/05/21 10:48:50;;;;;;;12.57;2.85;;;;;;;;;;4999515;28;20669;-71
2022/05/21 10:51:21;;;;;;;6.53;2.35;;;;;;;;;;4997354;28;20677;-71
2022/05/21 10:54:00;;;;;;;11.48;2.60;;;;;;;;;;4997693;28;20311;-71
2022/05/21 10:56:26;;;;;;;10.43;2.33;;;;;;;;;;4997678;28;20507;-71
2022/05/21 10:59:03;;;;;;;8.45;2.28;;;;;;;;;;4991386;28;20975;-71
2022/05/21 11:01:51;;;;;;;11.38;2.58;;;;;;;;;;5000601;28;20205;-71
2022/05/21 11:04:35;;;;;;;5.93;2.40;;;;;;;;;;4962482;28;20186;-71
2022/05/21 11:07:19;;;;;;;12.75;2.85;;;;;;;;;;4997917;28;20680;-71
2022/05/21 11:10:03;;;;;;;7.53;2.33;;;;;;;;;;4997730;28;20644;-69
2022/05/21 11:12:44;;;;;;;11.63;2.95;;;;;;;;;;5000942;28;20206;-70
2022/05/21 11:15:11;;;;;;;10.82;2.50;;;;;;;;;;5003160;28;20656;-70
2022/05/21 11:18:02;;;;;;;9.77;3.53;;;;;;;;;;5005544;28;20191;-71
2022/05/21 11:20:34;;;;;;;11.23;2.55;;;;;;;;;;5004351;28;20217;-71
2022/05/21 11:23:04;;;;;;;8.95;2.80;;;;;;;;;;4997331;28;20175;-71
2022/05/21 11:25:33;;;;;;;8.38;2.42;;;;;;;;;;4998438;28;20178;-71
2022/05/21 11:28:11;;;;;;;7.47;2.10;;;;;;;;;;4994411;28;20678;-71
2022/05/21 11:30:36;;;;;;;10.02;3.58;;;;;;;;;;4997181;28;20209;-71
2022/05/21 11:38:33;;;;;;;8.85;3.15;;;;;;;;;;5000761;28;20242;-71
2022/05/21 11:43:50;;;;;;;9.20;3.03;;;;;;;;;;5005042;28;20423;-71
2022/05/21 11:46:15;;;;;;;12.90;3.13;;;;;;;;;;5006800;28;20262;-72
2022/05/21 11:48:41;;;;;;;12.13;3.20;;;;;;;;;;5025613;28;20203;-71
2022/05/21 11:51:24;;;;;;;8.80;3.08;;;;;;;;;;5006586;28;21253;-71
2022/05/21 11:53:49;;;;;;;8.85;2.47;;;;;;;;;;4996922;28;20268;-72
2022/05/21 11:56:14;;;;;;;8.87;3.10;;;;;;;;;;4995838;28;20187;-72
2022/05/21 11:58:58;;;;;;;9.10;2.90;;;;;;;;;;4998822;28;20777;-72
2022/05/21 12:01:41;;;;;;;9.25;3.08;;;;;;;;;;4997598;28;20707;-72
2022/05/21 12:04:27;;;;;;;6.03;1.92;;;;;;;;;;4999318;28;20187;-71
2022/05/21 12:06:52;;;;;;;10.10;2.33;;;;;;;;;;4992060;28;20244;-71
2022/05/21 12:09:25;;;;;;;8.68;2.10;;;;;;;;;;4999235;28;20186;-71
2022/05/21 12:11:51;;;;;;;15.52;3.05;;;;;;;;;;4997224;28;20207;-71
2022/05/21 12:14:27;;;;;;;7.47;2.22;;;;;;;;;;4997673;28;20296;-71
2022/05/21 12:16:54;;;;;;;9.20;2.63;;;;;;;;;;4997473;28;20317;-71
2022/05/21 12:19:45;;;;;;;7.47;2.08;;;;;;;;;;4997735;28;20190;-71
2022/05/21 12:22:30;;;;;;;8.68;2.97;;;;;;;;;;4977531;28;20264;-71
2022/05/21 12:24:55;;;;;;;8.40;2.22;;;;;;;;;;4998877;28;20195;-71
2022/05/21 12:27:22;;;;;;;6.37;2.13;;;;;;;;;;4998632;28;20276;-71
2022/05/21 12:29:49;;;;;;;7.75;1.95;;;;;;;;;;4995126;28;21249;-71
2022/05/21 12:32:16;;;;;;;7.63;1.85;;;;;;;;;;4998895;28;20708;-71
2022/05/21 12:34:59;;;;;;;7.53;2.00;;;;;;;;;;4996960;28;20309;-71
2022/05/21 12:37:34;;;;;;;7.82;2.05;;;;;;;;;;4998206;28;20175;-71
2022/05/21 12:39:59;;;;;;;7.70;2.15;;;;;;;;;;5000003;28;20190;-71
2022/05/21 12:42:40;;;;;;;8.18;2.80;;;;;;;;;;4998666;28;20211;-71
2022/05/21 12:45:06;;;;;;;10.43;3.58;;;;;;;;;;5000098;28;20197;-68
2022/05/21 12:47:36;;;;;;;7.22;2.65;;;;;;;;;;5016213;28;20301;-70
2022/05/21 12:50:03;;;;;;;7.60;3.13;;;;;;;;;;4999248;28;20282;-71
2022/05/21 12:52:29;;;;;;;6.50;2.83;;;;;;;;;;4996051;28;20207;-70
2022/05/21 12:55:14;;;;;;;11.70;3.35;;;;;;;;;;4987095;28;20205;-71
2022/05/21 12:57:39;;;;;;;5.60;2.10;;;;;;;;;;4997897;28;20182;-71
2022/05/21 13:00:05;;;;;;;6.18;2.30;;;;;;;;;;4998214;28;20186;-71
2022/05/21 13:02:39;;;;;;;9.07;3.20;;;;;;;;;;4996983;28;20194;-71
2022/05/21 13:05:04;;;;;;;8.77;2.35;;;;;;;;;;4995333;28;20182;-71
2022/05/21 13:07:41;;;;;;;9.93;2.70;;;;;;;;;;4998769;28;20189;-71
2022/05/21 13:10:26;;;;;;;4.03;1.70;;;;;;;;;;4998613;28;20183;-71
2022/05/21 13:13:05;;;;;;;9.77;2.55;;;;;;;;;;5000269;28;20199;-70
2022/05/21 13:15:41;;;;;;;7.50;2.10;;;;;;;;;;5000989;28;20213;-69
2022/05/21 13:18:06;;;;;;;5.85;1.45;;;;;;;;;;4999466;28;20179;-70
2022/05/21 13:20:50;;;;;;;6.97;1.80;;;;;;;;;;5002020;28;20574;-70
2022/05/21 13:23:34;;;;;;;7.07;1.90;;;;;;;;;;5001074;28;20546;-70
2022/05/21 13:25:59;;;;;;;6.60;2.22;;;;;;;;;;5001507;28;20649;-70
2022/05/21 13:28:25;;;;;;;5.40;1.88;;;;;;;;;;4999138;28;20222;-70
2022/05/21 13:30:51;;;;;;;5.68;1.45;;;;;;;;;;5017057;28;20206;-70
2022/05/21 13:33:46;;;;;;;7.28;1.90;;;;;;;;;;5001185;28;20822;-70
2022/05/21 13:36:13;;;;;;;6.35;1.92;;;;;;;;;;4987317;28;20210;-70
2022/05/21 13:38:39;;;;;;;5.70;2.30;;;;;;;;;;5003180;28;20261;-71
2022/05/21 13:41:06;;;;;;;6.38;1.90;;;;;;;;;;4998281;28;20201;-70
2022/05/21 13:43:36;;;;;;;6.95;1.85;;;;;;;;;;4999661;28;20690;-70
2022/05/21 13:46:02;;;;;;;4.55;2.08;;;;;;;;;;5003097;28;20812;-70
2022/05/21 13:48:29;;;;;;;5.10;1.65;;;;;;;;;;5000368;28;20883;-70
2022/05/21 13:50:55;;;;;;;5.65;2.00;;;;;;;;;;4998289;28;20217;-70
2022/05/21 13:53:25;;;;;;;8.18;2.00;;;;;;;;;;4998285;28;20198;-70
2022/05/21 13:56:01;;;;;;;6.00;1.85;;;;;;;;;;4997770;28;20184;-70
2022/05/21 13:58:39;;;;;;;5.60;1.75;;;;;;;;;;4996223;28;20303;-70
2022/05/21 14:01:06;;;;;;;7.75;2.25;;;;;;;;;;5000748;28;20199;-70
2022/05/21 14:03:40;;;;;;;5.32;2.08;;;;;;;;;;5001088;28;20266;-70
2022/05/21 14:06:13;;;;;;;7.93;1.90;;;;;;;;;;5000091;28;20198;-70
2022/05/21 14:08:38;;;;;;;6.82;1.42;;;;;;;;;;5001788;28;20297;-70
2022/05/21 14:11:15;;;;;;;6.25;1.67;;;;;;;;;;5009766;28;20702;-70
2022/05/21 14:13:45;;;;;;;7.85;1.88;;;;;;;;;;5002054;28;20221;-71
2022/05/21 14:16:22;;;;;;;8.23;1.80;;;;;;;;;;5000861;28;20189;-71
2022/05/21 14:18:58;;;;;;;4.18;1.70;;;;;;;;;;4995960;28;20174;-71
2022/05/21 14:21:27;;;;;;;7.35;1.70;;;;;;;;;;5013497;28;20285;-71
2022/05/21 14:24:06;;;;;;;8.32;1.50;;;;;;;;;;5006830;28;20913;-71
2022/05/21 14:26:32;;;;;;;5.20;1.35;;;;;;;;;;5000593;28;20186;-71
2022/05/21 14:28:59;;;;;;;4.00;2.13;;;;;;;;;;4999033;28;20202;-71
2022/05/21 14:31:27;;;;;;;7.40;2.22;;;;;;;;;;5001463;28;20211;-71
2022/05/21 14:33:54;;;;;;;7.88;2.15;;;;;;;;;;5000595;28;20215;-71
2022/05/21 14:36:22;;;;;;;7.57;1.73;;;;;;;;;;4998614;28;20282;-71
2022/05/21 14:38:47;;;;;;;6.55;1.55;;;;;;;;;;5000474;28;20546;-72
2022/05/21 14:41:27;;;;;;;6.20;1.42;;;;;;;;;;4998745;28;20198;-72
2022/05/21 14:43:52;;;;;;;6.30;1.75;;;;;;;;;;5000503;28;20181;-71
2022/05/21 14:49:01;;;;;;;6.45;1.90;;;;;;;;;;4994527;28;20280;-72
2022/05/21 14:54:10;;;;;;;3.85;1.40;;;;;;;;;;4996360;28;20256;-71
2022/05/21 14:56:36;;;;;;;7.63;1.57;;;;;;;;;;4998862;28;20898;-72
2022/05/21 14:59:01;;;;;;;7.35;1.80;;;;;;;;;;4999108;28;20433;-70
2022/05/21 15:01:28;;;;;;;7.82;2.00;;;;;;;;;;4998671;28;20210;-70
2022/05/21 15:03:53;;;;;;;9.88;1.98;;;;;;;;;;4999679;28;20229;-70
2022/05/21 15:06:21;;;;;;;6.05;1.40;;;;;;;;;;4995972;28;20186;-71
2022/05/21 15:08:47;;;;;;;6.28;1.65;;;;;;;;;;5000776;28;20191;-70
2022/05/21 15:11:12;;;;;;;7.38;1.17;;;;;;;;;;5000468;28;20230;-70
2022/05/21 15:13:37;;;;;;;6.53;1.47;;;;;;;;;;4999963;28;20224;-71
2022/05/21 15:16:02;;;;;;;7.53;2.13;;;;;;;;;;4998399;28;20444;-71
2022/05/21 15:18:27;;;;;;;4.07;1.20;;;;;;;;;;5000138;28;20843;-72